Time;durP1;ratioP1;P1;durP2;ratioP2;P2;SDS_P1;SDS_P2;PMS_P1;PMS_P2;Temp;Humidity;BMP_temperature;BMP_pressure;BME280_temperature;BME280_humidity;BME280_pressure;Samples;Min_cycle;Max_cycle;Signal;HPM_P1;HPM_P2
2023/07/23 00:00:27;;;;;;;10.18;5.80;;;15.30;99.90;;;;;;5024107;28;20124;-65
2023/07/23 00:02:52;;;;;;;11.13;5.30;;;15.20;99.90;;;;;;5027444;28;20033;-65
2023/07/23 00:05:18;;;;;;;10.88;5.43;;;15.10;99.90;;;;;;5026409;28;20473;-65
2023/07/23 00:07:44;;;;;;;16.23;6.45;;;15.00;99.90;;;;;;5022843;28;20040;-65
2023/07/23 00:10:10;;;;;;;8.82;5.20;;;15.00;99.90;;;;;;5024610;28;20212;-65
2023/07/23 00:12:36;;;;;;;9.38;4.68;;;15.00;99.90;;;;;;5010955;28;20034;-66
2023/07/23 00:15:03;;;;;;;10.32;5.75;;;14.90;99.90;;;;;;5016267;28;20466;-66
2023/07/23 00:17:28;;;;;;;9.38;5.78;;;14.90;99.90;;;;;;5016253;28;20068;-65
2023/07/23 00:19:54;;;;;;;11.23;5.78;;;14.90;99.90;;;;;;5019494;28;20034;-66
2023/07/23 00:22:20;;;;;;;12.43;6.03;;;14.90;99.90;;;;;;5015014;28;20121;-66
2023/07/23 00:24:46;;;;;;;13.30;6.15;;;14.90;99.90;;;;;;5017496;28;20112;-66
2023/07/23 00:27:13;;;;;;;15.65;5.90;;;14.90;99.90;;;;;;5016982;28;20033;-66
2023/07/23 00:29:40;;;;;;;9.65;5.20;;;14.80;99.90;;;;;;5022935;28;20036;-65
2023/07/23 00:32:06;;;;;;;11.48;5.85;;;14.80;99.90;;;;;;5020986;28;20212;-65
2023/07/23 00:34:32;;;;;;;12.20;5.25;;;14.80;99.90;;;;;;5022041;28;20061;-65
2023/07/23 00:36:57;;;;;;;11.88;5.78;;;14.60;99.90;;;;;;5018065;28;20033;-65
2023/07/23 00:39:23;;;;;;;9.52;5.50;;;14.60;99.90;;;;;;5019398;28;20789;-64
2023/07/23 00:41:49;;;;;;;8.07;4.72;;;14.50;99.90;;;;;;5026579;28;20535;-63
2023/07/23 00:44:16;;;;;;;10.38;5.88;;;14.60;99.90;;;;;;5016824;28;20088;-65
2023/07/23 00:46:42;;;;;;;11.32;5.35;;;14.40;99.90;;;;;;5018105;28;20029;-66
2023/07/23 00:49:08;;;;;;;8.43;5.13;;;14.40;99.90;;;;;;5019075;28;20477;-64
2023/07/23 00:51:35;;;;;;;10.45;5.68;;;14.30;99.90;;;;;;5023311;28;20040;-66
2023/07/23 00:54:01;;;;;;;13.63;5.35;;;14.20;99.90;;;;;;5025663;28;20033;-66
2023/07/23 00:56:27;;;;;;;11.32;5.32;;;14.10;99.90;;;;;;5028443;28;20480;-65
2023/07/23 00:58:53;;;;;;;11.82;5.47;;;14.10;99.90;;;;;;5024516;28;20033;-63
2023/07/23 01:01:19;;;;;;;8.35;5.15;;;14.10;99.90;;;;;;5024063;28;20061;-66
2023/07/23 01:03:45;;;;;;;10.02;5.65;;;14.20;99.90;;;;;;5020131;28;20045;-66
2023/07/23 01:06:12;;;;;;;10.35;5.80;;;14.10;99.90;;;;;;5019796;28;20033;-65
2023/07/23 01:08:41;;;;;;;12.20;5.78;;;14.10;99.90;;;;;;5020973;28;20072;-66
2023/07/23 01:11:07;;;;;;;11.98;5.30;;;14.00;99.90;;;;;;5012615;28;20026;-66
2023/07/23 01:13:36;;;;;;;10.20;5.68;;;14.00;99.90;;;;;;5020320;28;20053;-66
2023/07/23 01:16:07;;;;;;;10.18;5.45;;;13.90;99.90;;;;;;5013188;28;20088;-66
2023/07/23 01:18:37;;;;;;;9.60;5.13;;;13.80;99.90;;;;;;5020764;28;20104;-66
2023/07/23 01:21:03;;;;;;;15.18;5.65;;;13.90;99.90;;;;;;5020271;28;20427;-66
2023/07/23 01:23:28;;;;;;;13.23;5.78;;;13.90;99.90;;;;;;5012553;28;20038;-65
2023/07/23 01:25:54;;;;;;;11.48;5.90;;;13.80;99.90;;;;;;5022435;28;20030;-63
2023/07/23 01:28:20;;;;;;;10.73;5.78;;;13.80;99.90;;;;;;5014442;28;20029;-65
2023/07/23 01:30:46;;;;;;;9.65;5.65;;;13.80;99.90;;;;;;5018888;28;20470;-66
2023/07/23 01:33:12;;;;;;;11.52;5.70;;;13.80;99.90;;;;;;5016855;28;20121;-66
2023/07/23 01:35:38;;;;;;;11.10;5.90;;;13.80;99.90;;;;;;5025472;28;20038;-65
2023/07/23 01:38:04;;;;;;;10.88;5.40;;;13.70;99.90;;;;;;5019274;28;20121;-64
2023/07/23 01:40:30;;;;;;;10.63;5.57;;;13.70;99.90;;;;;;5021645;28;20030;-66
2023/07/23 01:42:56;;;;;;;9.68;5.85;;;13.70;99.90;;;;;;5010554;28;20120;-63
2023/07/23 01:45:21;;;;;;;10.18;5.57;;;13.70;99.90;;;;;;4997411;28;20026;-65
2023/07/23 01:47:47;;;;;;;10.98;5.55;;;13.70;99.90;;;;;;5013671;28;20052;-65
2023/07/23 01:50:13;;;;;;;11.38;5.95;;;13.70;99.90;;;;;;5024240;28;20032;-66
2023/07/23 01:52:39;;;;;;;11.07;5.65;;;13.70;99.90;;;;;;5009602;28;20047;-65
2023/07/23 01:55:05;;;;;;;11.32;5.78;;;13.70;99.90;;;;;;5024765;28;20577;-66
2023/07/23 01:57:30;;;;;;;11.50;6.32;;;13.60;99.90;;;;;;5025379;28;20482;-64
2023/07/23 01:59:56;;;;;;;9.55;5.45;;;13.60;99.90;;;;;;5019084;28;20022;-63
2023/07/23 02:02:22;;;;;;;9.63;6.03;;;13.50;99.90;;;;;;5018598;28;20439;-65
2023/07/23 02:04:47;;;;;;;9.27;5.63;;;13.50;99.90;;;;;;5026703;28;20409;-64
2023/07/23 02:07:14;;;;;;;12.05;6.15;;;13.50;99.90;;;;;;5021426;28;20045;-64
2023/07/23 02:09:40;;;;;;;9.00;5.20;;;13.50;99.90;;;;;;5013055;28;20034;-65
2023/07/23 02:12:06;;;;;;;9.18;5.53;;;13.50;99.90;;;;;;4997292;28;20117;-65
2023/07/23 02:14:32;;;;;;;12.40;6.75;;;13.50;99.90;;;;;;5009076;28;20687;-65
2023/07/23 02:16:58;;;;;;;10.27;5.88;;;13.40;99.90;;;;;;5002534;28;20474;-63
2023/07/23 02:19:24;;;;;;;11.98;5.85;;;13.40;99.90;;;;;;5020415;28;20045;-65
2023/07/23 02:21:49;;;;;;;10.27;5.55;;;13.40;99.90;;;;;;5016477;28;20063;-66
2023/07/23 02:24:15;;;;;;;12.48;6.20;;;13.30;99.90;;;;;;5017494;28;20033;-65
2023/07/23 02:26:40;;;;;;;15.93;5.75;;;13.30;99.90;;;;;;5018698;28;20044;-66
2023/07/23 02:29:06;;;;;;;11.02;6.10;;;13.30;99.90;;;;;;4999611;28;20155;-65
2023/07/23 02:31:32;;;;;;;11.50;5.72;;;13.30;99.90;;;;;;5013656;28;20045;-65
2023/07/23 02:33:58;;;;;;;11.00;5.72;;;13.30;99.90;;;;;;5015760;28;20442;-63
2023/07/23 02:36:24;;;;;;;11.70;6.30;;;13.20;99.90;;;;;;5025032;28;20049;-65
2023/07/23 02:38:49;;;;;;;11.07;6.05;;;13.10;99.90;;;;;;5024580;28;20037;-65
2023/07/23 02:41:15;;;;;;;10.00;5.35;;;13.10;99.90;;;;;;5013958;28;20030;-65
2023/07/23 02:43:40;;;;;;;10.50;6.03;;;13.00;99.90;;;;;;5025414;28;20030;-66
2023/07/23 02:46:06;;;;;;;9.80;5.57;;;13.00;99.90;;;;;;5023227;28;20086;-65
2023/07/23 02:48:32;;;;;;;10.90;5.72;;;13.00;99.90;;;;;;5026422;28;20119;-65
2023/07/23 02:50:57;;;;;;;10.57;6.10;;;13.00;99.90;;;;;;5013784;28;20064;-63
2023/07/23 02:53:23;;;;;;;11.38;6.05;;;12.90;99.90;;;;;;5020602;28;20113;-66
2023/07/23 02:55:48;;;;;;;9.35;5.53;;;12.90;99.90;;;;;;5017664;28;20084;-65
2023/07/23 02:58:14;;;;;;;12.43;5.60;;;12.90;99.90;;;;;;5008749;28;20540;-66
2023/07/23 03:00:42;;;;;;;14.85;6.03;;;12.90;99.90;;;;;;5021599;28;20029;-65
2023/07/23 03:03:08;;;;;;;10.80;5.93;;;12.90;99.90;;;;;;5012014;28;20021;-65
2023/07/23 03:05:35;;;;;;;10.07;5.65;;;12.90;99.90;;;;;;5026563;28;20036;-66
2023/07/23 03:08:02;;;;;;;9.35;6.22;;;12.80;99.90;;;;;;5019381;28;20041;-63
2023/07/23 03:10:28;;;;;;;11.07;5.97;;;12.90;99.90;;;;;;5023133;28;20034;-65
2023/07/23 03:12:54;;;;;;;11.70;6.22;;;12.80;99.90;;;;;;5016791;28;20026;-65
2023/07/23 03:15:20;;;;;;;9.10;5.43;;;12.90;99.90;;;;;;5014365;28;20571;-66
2023/07/23 03:17:45;;;;;;;10.27;5.55;;;12.90;99.90;;;;;;5010176;28;20403;-65
2023/07/23 03:20:11;;;;;;;11.40;6.05;;;13.00;99.90;;;;;;5000500;28;20100;-65
2023/07/23 03:22:40;;;;;;;10.73;5.90;;;13.00;99.90;;;;;;5025996;28;20030;-66
2023/07/23 03:25:05;;;;;;;9.95;5.60;;;12.90;99.90;;;;;;5011382;28;20030;-65
2023/07/23 03:27:31;;;;;;;12.45;6.03;;;12.80;99.90;;;;;;5023948;28;20033;-65
2023/07/23 03:29:57;;;;;;;11.35;5.80;;;12.80;99.90;;;;;;5023303;28;20113;-65
2023/07/23 03:32:23;;;;;;;10.70;5.70;;;12.80;99.90;;;;;;5016369;28;20119;-65
2023/07/23 03:34:49;;;;;;;12.30;5.50;;;12.90;99.90;;;;;;5016179;28;20406;-65
2023/07/23 03:37:14;;;;;;;11.38;6.65;;;12.90;99.90;;;;;;5015736;28;20030;-65
2023/07/23 03:39:40;;;;;;;10.68;5.70;;;12.80;99.90;;;;;;5024410;28;20029;-65
2023/07/23 03:42:09;;;;;;;14.18;6.10;;;12.80;99.90;;;;;;5019347;28;20040;-65
2023/07/23 03:44:34;;;;;;;9.63;5.93;;;12.70;99.90;;;;;;5014439;28;20033;-65
2023/07/23 03:47:12;;;;;;;13.85;5.93;;;12.60;99.90;;;;;;5022108;28;20457;-63
2023/07/23 03:49:37;;;;;;;9.77;5.72;;;12.50;99.90;;;;;;5018535;28;20382;-65
2023/07/23 03:52:04;;;;;;;12.48;5.72;;;12.60;99.90;;;;;;5018572;28;20059;-63
2023/07/23 03:54:30;;;;;;;9.27;5.57;;;12.60;99.90;;;;;;5024810;28;20112;-65
2023/07/23 03:56:56;;;;;;;12.00;5.97;;;12.50;99.90;;;;;;5020258;28;20056;-65
2023/07/23 03:59:21;;;;;;;8.52;5.32;;;12.60;99.90;;;;;;5016203;28;20146;-63
2023/07/23 04:01:47;;;;;;;8.63;5.43;;;12.70;99.90;;;;;;5025791;28;20457;-65
2023/07/23 04:04:13;;;;;;;10.15;4.97;;;12.70;99.90;;;;;;5021150;28;20437;-65
2023/07/23 04:06:39;;;;;;;12.55;6.05;;;12.70;99.90;;;;;;5021474;28;20424;-65
2023/07/23 04:09:04;;;;;;;10.20;5.53;;;12.60;99.90;;;;;;5021224;28;20049;-63
2023/07/23 04:11:30;;;;;;;12.32;5.38;;;12.60;99.90;;;;;;5024764;28;20053;-65
2023/07/23 04:13:55;;;;;;;10.48;5.75;;;12.60;99.90;;;;;;5024193;28;20351;-65
2023/07/23 04:16:21;;;;;;;10.68;5.60;;;12.70;99.90;;;;;;5020389;28;20049;-65
2023/07/23 04:18:49;;;;;;;10.05;5.40;;;12.70;99.90;;;;;;5023476;28;20044;-65
2023/07/23 04:21:18;;;;;;;11.48;5.68;;;12.60;99.90;;;;;;5018433;28;20026;-65
2023/07/23 04:23:47;;;;;;;10.65;5.55;;;12.60;99.90;;;;;;5017903;28;20056;-65
2023/07/23 04:26:17;;;;;;;9.63;5.45;;;12.70;99.90;;;;;;5021477;28;20034;-64
2023/07/23 04:28:43;;;;;;;10.23;4.82;;;12.70;99.90;;;;;;5027125;28;20029;-64
2023/07/23 04:31:09;;;;;;;9.63;5.40;;;12.90;99.90;;;;;;5014105;28;20068;-65
2023/07/23 04:33:35;;;;;;;9.68;5.38;;;13.00;99.90;;;;;;5026405;28;20763;-65
2023/07/23 04:36:03;;;;;;;9.50;5.32;;;13.20;99.90;;;;;;5011586;28;20041;-65
2023/07/23 04:38:28;;;;;;;8.68;5.50;;;13.40;99.90;;;;;;5010298;28;20049;-65
2023/07/23 04:40:54;;;;;;;8.30;5.00;;;13.50;99.90;;;;;;5015853;28;20372;-65
2023/07/23 04:43:19;;;;;;;11.30;5.13;;;13.60;99.90;;;;;;5013215;28;20127;-65
2023/07/23 04:45:45;;;;;;;9.73;5.03;;;13.70;99.90;;;;;;5017817;28;20029;-65
2023/07/23 04:48:12;;;;;;;10.32;5.57;;;13.80;99.90;;;;;;5020235;28;20026;-65
2023/07/23 04:50:38;;;;;;;8.60;5.30;;;13.90;99.90;;;;;;5015794;28;20029;-65
2023/07/23 04:53:03;;;;;;;10.32;5.95;;;14.00;99.90;;;;;;5019830;28;20157;-64
2023/07/23 04:55:29;;;;;;;8.57;5.20;;;14.10;99.90;;;;;;5022505;28;20052;-64
2023/07/23 04:57:55;;;;;;;11.77;4.93;;;14.30;99.90;;;;;;5020709;28;20077;-65
2023/07/23 05:00:22;;;;;;;9.32;4.65;;;14.50;99.90;;;;;;5020911;28;20025;-64
2023/07/23 05:02:47;;;;;;;8.82;5.00;;;14.60;99.90;;;;;;5022881;28;20051;-64
2023/07/23 05:05:13;;;;;;;9.75;4.88;;;14.60;99.90;;;;;;5002717;28;20030;-65
2023/07/23 05:07:39;;;;;;;7.68;4.95;;;14.70;99.90;;;;;;5010008;28;20387;-65
2023/07/23 05:10:05;;;;;;;11.23;5.45;;;14.80;99.90;;;;;;5017630;28;20496;-63
2023/07/23 05:12:30;;;;;;;10.43;5.30;;;14.90;99.90;;;;;;5020327;28;20034;-63
2023/07/23 05:15:10;;;;;;;9.25;4.88;;;14.90;99.90;;;;;;5019087;28;20036;-65
2023/07/23 05:17:36;;;;;;;12.63;5.20;;;15.00;99.90;;;;;;5022572;28;20063;-65
2023/07/23 05:20:02;;;;;;;9.18;5.30;;;15.10;99.90;;;;;;5026333;28;20631;-65
2023/07/23 05:22:27;;;;;;;8.85;5.10;;;15.20;99.90;;;;;;5008740;28;20030;-64
2023/07/23 05:24:53;;;;;;;8.95;4.88;;;15.40;99.90;;;;;;5024374;28;20095;-65
2023/07/23 05:27:18;;;;;;;9.27;5.25;;;15.40;99.90;;;;;;5026432;28;20042;-65
2023/07/23 05:29:44;;;;;;;8.75;4.90;;;15.50;99.90;;;;;;5024296;28;20037;-66
2023/07/23 05:32:10;;;;;;;7.38;4.63;;;15.50;99.90;;;;;;5024719;28;20034;-63
2023/07/23 05:34:35;;;;;;;8.38;5.22;;;15.50;99.90;;;;;;5022032;28;20137;-64
2023/07/23 05:37:01;;;;;;;8.85;5.00;;;15.50;99.90;;;;;;5021723;28;20037;-65
2023/07/23 05:39:26;;;;;;;7.22;4.97;;;15.60;99.90;;;;;;5017939;28;20030;-66
2023/07/23 05:41:52;;;;;;;7.97;4.78;;;15.50;99.90;;;;;;5018623;28;20033;-63
2023/07/23 05:44:18;;;;;;;7.55;4.57;;;15.40;99.90;;;;;;5019030;28;20094;-65
2023/07/23 05:46:43;;;;;;;7.93;4.43;;;15.40;99.90;;;;;;5014775;28;20127;-64
2023/07/23 05:49:09;;;;;;;8.27;5.00;;;15.60;99.90;;;;;;5021926;28;20083;-63
2023/07/23 05:51:34;;;;;;;7.43;4.28;;;15.80;99.90;;;;;;5010571;28;20021;-66
2023/07/23 05:54:00;;;;;;;8.25;5.15;;;16.00;99.90;;;;;;5024006;28;20030;-66
2023/07/23 05:56:26;;;;;;;10.75;5.00;;;16.20;99.90;;;;;;5024287;28;20040;-65
2023/07/23 05:58:52;;;;;;;15.85;4.70;;;16.40;99.90;;;;;;5021026;28;20060;-65
2023/07/23 06:01:18;;;;;;;7.35;4.82;;;16.60;99.90;;;;;;5026573;28;20075;-65
2023/07/23 06:03:43;;;;;;;6.88;4.25;;;16.80;99.90;;;;;;5021599;28;20052;-65
2023/07/23 06:06:09;;;;;;;10.05;4.90;;;17.10;99.90;;;;;;5016921;28;20022;-63
2023/07/23 06:08:35;;;;;;;7.25;4.30;;;17.30;99.90;;;;;;5013754;28;20052;-66
2023/07/23 06:11:00;;;;;;;9.20;4.63;;;17.50;99.90;;;;;;5012475;28;20030;-66
2023/07/23 06:13:26;;;;;;;7.25;4.35;;;17.70;99.90;;;;;;4995832;28;20032;-66
2023/07/23 06:15:51;;;;;;;8.65;4.90;;;17.90;99.90;;;;;;5021643;28;20026;-66
2023/07/23 06:18:17;;;;;;;7.25;4.10;;;18.00;99.90;;;;;;5010571;28;20061;-65
2023/07/23 06:20:43;;;;;;;7.85;4.40;;;18.20;99.90;;;;;;5021812;28;20037;-65
2023/07/23 06:23:08;;;;;;;6.78;4.10;;;18.50;99.90;;;;;;5018039;28;20565;-66
2023/07/23 06:25:34;;;;;;;6.95;3.97;;;18.70;99.90;;;;;;5015775;28;20501;-65
2023/07/23 06:27:59;;;;;;;6.68;3.90;;;18.80;99.90;;;;;;5010954;28;20029;-66
2023/07/23 06:30:25;;;;;;;8.40;3.28;;;19.00;99.90;;;;;;5017802;28;20115;-65
2023/07/23 06:32:51;;;;;;;6.55;3.75;;;19.20;99.90;;;;;;5017483;28;20025;-65
2023/07/23 06:35:16;;;;;;;7.63;3.20;;;19.40;99.90;;;;;;5007894;28;20034;-65
2023/07/23 06:37:42;;;;;;;11.32;3.60;;;19.60;99.90;;;;;;5012218;28;20433;-66
2023/07/23 06:40:08;;;;;;;5.22;3.53;;;19.80;99.90;;;;;;5008636;28;20033;-66
2023/07/23 06:42:34;;;;;;;10.27;3.25;;;20.00;99.90;;;;;;4999911;28;20821;-65
2023/07/23 06:44:59;;;;;;;8.77;2.97;;;20.30;99.90;;;;;;5011042;28;20098;-66
2023/07/23 06:47:25;;;;;;;4.57;2.65;;;20.50;99.90;;;;;;5009375;28;20049;-66
2023/07/23 06:49:51;;;;;;;7.90;3.20;;;20.80;99.90;;;;;;5023435;28;20112;-65
2023/07/23 06:52:16;;;;;;;3.80;2.35;;;21.00;99.90;;;;;;5019035;28;20030;-64
2023/07/23 06:54:42;;;;;;;5.80;2.95;;;21.20;99.90;;;;;;5011730;28;20416;-66
2023/07/23 06:57:09;;;;;;;6.60;2.75;;;21.40;99.90;;;;;;5022616;28;20047;-66
2023/07/23 06:59:35;;;;;;;6.82;3.15;;;21.60;99.90;;;;;;5014577;28;20022;-66
2023/07/23 07:02:00;;;;;;;6.75;2.47;;;21.70;99.90;;;;;;5019107;28;20039;-65
2023/07/23 07:04:26;;;;;;;4.45;2.63;;;21.70;99.90;;;;;;5020371;28;20040;-66
2023/07/23 07:06:52;;;;;;;4.03;2.58;;;21.90;99.90;;;;;;5019584;28;20116;-70
2023/07/23 07:09:18;;;;;;;4.82;2.58;;;22.00;99.90;;;;;;5016085;28;20119;-70
2023/07/23 07:11:44;;;;;;;4.22;2.72;;;22.20;99.70;;;;;;5028689;28;20047;-68
2023/07/23 07:14:09;;;;;;;4.22;2.45;;;22.30;99.90;;;;;;5022518;28;20100;-68
2023/07/23 07:16:35;;;;;;;3.63;2.40;;;22.20;97.80;;;;;;5022545;28;20104;-68
2023/07/23 07:19:00;;;;;;;4.63;2.63;;;22.20;98.00;;;;;;5020220;28;20072;-67
2023/07/23 07:21:26;;;;;;;5.13;2.60;;;22.30;99.00;;;;;;5019706;28;20101;-68
2023/07/23 07:23:52;;;;;;;3.78;2.45;;;22.40;97.80;;;;;;5003291;28;20083;-68
2023/07/23 07:26:17;;;;;;;6.55;3.15;;;22.50;97.20;;;;;;5010812;28;20109;-66
2023/07/23 07:28:43;;;;;;;6.13;2.90;;;22.20;97.50;;;;;;5022460;28;20046;-69
2023/07/23 07:31:11;;;;;;;6.53;2.60;;;22.10;97.80;;;;;;5021746;28;20441;-69
2023/07/23 07:33:39;;;;;;;4.40;2.60;;;22.20;97.50;;;;;;5015657;28;20034;-66
2023/07/23 07:36:05;;;;;;;9.32;2.88;;;22.20;97.90;;;;;;5020739;28;20026;-67
2023/07/23 07:38:30;;;;;;;5.43;2.70;;;22.40;97.70;;;;;;5014982;28;20057;-68
2023/07/23 07:40:57;;;;;;;9.63;2.70;;;22.60;97.40;;;;;;5011790;28;20498;-68
2023/07/23 07:43:23;;;;;;;6.80;2.75;;;22.70;97.00;;;;;;5018781;28;20474;-69
2023/07/23 07:45:52;;;;;;;5.57;3.03;;;23.00;97.50;;;;;;5017825;28;20038;-67
2023/07/23 07:48:21;;;;;;;4.55;2.70;;;23.00;94.20;;;;;;5013489;28;20119;-65
2023/07/23 07:51:07;;;;;;;6.68;2.67;;;22.70;95.40;;;;;;5011255;28;20034;-67
2023/07/23 07:53:34;;;;;;;4.10;2.50;;;22.60;95.00;;;;;;4997167;28;20460;-68
2023/07/23 07:56:01;;;;;;;6.22;2.80;;;22.50;95.40;;;;;;5016071;28;20057;-69
2023/07/23 07:58:27;;;;;;;5.35;2.72;;;22.50;95.90;;;;;;5021414;28;20030;-69
2023/07/23 08:00:58;;;;;;;6.40;2.70;;;22.50;95.70;;;;;;5018361;28;20026;-69
2023/07/23 08:03:26;;;;;;;9.52;3.15;;;22.70;96.00;;;;;;5020218;28;20033;-67
2023/07/23 08:05:53;;;;;;;3.97;2.50;;;22.80;94.70;;;;;;5011393;28;20382;-67
2023/07/23 08:08:30;;;;;;;3.70;2.50;;;22.80;94.20;;;;;;5011197;28;20053;-64
2023/07/23 08:10:57;;;;;;;4.13;2.45;;;23.00;95.30;;;;;;5018131;28;20038;-67
2023/07/23 08:13:24;;;;;;;6.40;3.05;;;23.10;94.10;;;;;;5014053;28;20389;-68
2023/07/23 08:15:50;;;;;;;5.55;3.00;;;23.10;93.60;;;;;;5013536;28;20088;-68
2023/07/23 08:18:16;;;;;;;5.75;2.85;;;23.20;94.60;;;;;;5023680;28;20057;-64
2023/07/23 08:20:43;;;;;;;4.45;2.40;;;23.00;94.10;;;;;;5019946;28;20038;-67
2023/07/23 08:23:09;;;;;;;4.78;2.97;;;23.10;93.30;;;;;;4997573;28;20397;-69
2023/07/23 08:25:35;;;;;;;4.63;2.78;;;23.20;92.20;;;;;;5024023;28;20035;-69
2023/07/23 08:28:02;;;;;;;5.07;2.67;;;23.40;94.20;;;;;;5025351;28;20025;-69
2023/07/23 08:30:29;;;;;;;4.93;2.80;;;23.60;93.00;;;;;;5020290;28;20033;-67
2023/07/23 08:32:56;;;;;;;3.83;2.10;;;23.70;91.60;;;;;;5017580;28;20545;-69
2023/07/23 08:35:23;;;;;;;4.00;2.30;;;23.30;91.90;;;;;;5016456;28;20033;-66
2023/07/23 08:37:49;;;;;;;3.97;2.50;;;23.20;93.20;;;;;;5011876;28;20614;-68
2023/07/23 08:40:15;;;;;;;3.97;2.60;;;22.90;92.50;;;;;;5024970;28;20040;-69
2023/07/23 08:42:53;;;;;;;5.65;2.70;;;22.70;92.60;;;;;;5018098;28;20021;-69
2023/07/23 08:45:40;;;;;;;3.97;2.40;;;22.70;93.20;;;;;;5019944;28;20572;-64
2023/07/23 08:48:14;;;;;;;3.92;2.28;;;22.80;94.60;;;;;;5025909;28;20060;-67
2023/07/23 08:50:43;;;;;;;3.72;2.40;;;23.30;92.60;;;;;;5029855;28;20025;-72
2023/07/23 08:53:10;;;;;;;4.28;2.40;;;23.50;92.10;;;;;;5027598;28;20055;-68
2023/07/23 08:55:38;;;;;;;4.63;2.38;;;23.70;92.60;;;;;;5026080;28;20040;-69
2023/07/23 08:58:04;;;;;;;5.75;2.60;;;23.90;92.60;;;;;;5019271;28;20044;-70
2023/07/23 09:00:30;;;;;;;3.60;2.47;;;24.20;92.40;;;;;;5021352;28;20026;-68
2023/07/23 09:03:02;;;;;;;3.75;2.50;;;24.10;91.80;;;;;;5029000;28;20063;-69
2023/07/23 09:05:29;;;;;;;6.78;2.58;;;23.90;92.00;;;;;;5027068;28;20161;-68
2023/07/23 09:07:54;;;;;;;7.88;2.78;;;23.70;92.00;;;;;;5026223;28;20478;-66
2023/07/23 09:10:20;;;;;;;5.78;2.50;;;24.00;92.20;;;;;;5028768;28;20076;-64
2023/07/23 09:12:46;;;;;;;4.43;2.45;;;24.10;91.30;;;;;;5027540;28;20075;-68
2023/07/23 09:15:13;;;;;;;4.65;2.70;;;24.00;92.40;;;;;;5020817;28;20349;-71
2023/07/23 09:17:39;;;;;;;3.58;2.20;;;24.20;91.40;;;;;;5027729;28;20853;-71
2023/07/23 09:20:09;;;;;;;5.75;2.67;;;24.40;91.20;;;;;;5018965;28;20064;-68
2023/07/23 09:22:35;;;;;;;;;;;24.20;91.10;;;;;;5016177;28;20088;-68
2023/07/23 09:25:00;;;;;;;5.53;2.28;;;24.10;90.80;;;;;;5032198;28;19913;-69
2023/07/23 09:27:42;;;;;;;5.05;2.40;;;23.90;91.20;;;;;;5021281;28;20080;-69
2023/07/23 09:30:17;;;;;;;7.68;2.40;;;24.10;91.80;;;;;;5026852;28;20405;-67
2023/07/23 09:32:43;;;;;;;4.45;2.00;;;24.10;91.30;;;;;;5022742;28;20025;-70
2023/07/23 09:35:08;;;;;;;3.55;2.22;;;23.90;91.20;;;;;;5026386;28;20048;-67
2023/07/23 09:37:35;;;;;;;5.45;2.50;;;24.00;91.60;;;;;;5016021;28;20038;-69
2023/07/23 09:40:01;;;;;;;3.53;2.40;;;24.30;91.70;;;;;;5024320;28;20382;-68
2023/07/23 09:42:26;;;;;;;4.72;2.55;;;24.30;90.40;;;;;;5022476;28;20033;-69
2023/07/23 09:44:53;;;;;;;4.82;2.35;;;23.90;91.10;;;;;;5020301;28;20363;-69
2023/07/23 09:47:25;;;;;;;4.90;2.55;;;23.90;91.70;;;;;;5025341;28;20092;-68
2023/07/23 09:49:54;;;;;;;6.07;2.38;;;24.30;92.00;;;;;;5018359;28;20050;-67
2023/07/23 09:52:23;;;;;;;6.13;2.67;;;24.60;91.00;;;;;;5025068;28;21863;-70
2023/07/23 09:54:52;;;;;;;3.75;2.45;;;24.80;91.70;;;;;;5021762;28;20043;-69
2023/07/23 09:57:19;;;;;;;4.53;2.10;;;25.10;91.00;;;;;;5026634;28;20438;-75
2023/07/23 09:59:46;;;;;;;4.60;2.80;;;25.00;89.90;;;;;;5018229;28;20080;-69
2023/07/23 10:02:15;;;;;;;5.30;2.60;;;24.80;90.90;;;;;;5024963;28;20022;-69
2023/07/23 10:04:41;;;;;;;6.78;2.30;;;25.00;90.00;;;;;;5019276;28;20504;-68
2023/07/23 10:07:07;;;;;;;3.83;2.47;;;25.20;89.90;;;;;;5025546;28;20029;-71
2023/07/23 10:09:33;;;;;;;8.82;2.35;;;25.50;90.00;;;;;;5024491;28;20099;-70
2023/07/23 10:11:59;;;;;;;5.18;2.70;;;25.50;90.70;;;;;;5019309;28;20037;-69
2023/07/23 10:14:25;;;;;;;5.13;2.60;;;25.60;88.50;;;;;;5024388;28;20109;-68
2023/07/23 10:16:53;;;;;;;4.13;2.40;;;25.40;88.30;;;;;;5017583;28;20091;-68
2023/07/23 10:19:20;;;;;;;4.22;2.53;;;25.40;88.90;;;;;;5023088;28;20040;-68
2023/07/23 10:21:51;;;;;;;4.30;2.53;;;25.10;88.70;;;;;;5024310;28;20036;-68
2023/07/23 10:24:17;;;;;;;7.32;2.65;;;25.00;90.40;;;;;;5021501;28;20091;-68
2023/07/23 10:26:48;;;;;;;6.85;3.00;;;24.80;89.80;;;;;;5023069;28;20041;-69
2023/07/23 10:29:23;;;;;;;4.07;2.63;;;24.50;90.60;;;;;;5026669;28;20034;-69
2023/07/23 10:31:50;;;;;;;6.40;2.85;;;24.30;90.80;;;;;;5023846;28;20033;-69
2023/07/23 10:34:22;;;;;;;7.38;2.85;;;24.30;90.60;;;;;;5018899;28;20512;-70
2023/07/23 10:37:11;;;;;;;16.58;2.72;;;24.40;90.50;;;;;;5000034;28;20091;-66
2023/07/23 10:39:41;;;;;;;6.72;2.55;;;24.60;90.30;;;;;;5016682;28;20034;-70
2023/07/23 10:42:07;;;;;;;5.65;2.70;;;25.30;90.20;;;;;;5022917;28;20025;-71
2023/07/23 10:44:32;;;;;;;3.50;2.40;;;25.80;87.50;;;;;;5019835;28;20040;-70
2023/07/23 10:46:59;;;;;;;8.15;3.78;;;26.00;86.00;;;;;;5026037;28;20045;-67
2023/07/23 10:49:29;;;;;;;4.38;2.40;;;26.20;84.90;;;;;;5022123;28;20041;-67
2023/07/23 10:52:12;;;;;;;5.82;2.60;;;25.70;85.00;;;;;;5022918;28;20466;-70
2023/07/23 10:54:37;;;;;;;4.78;2.67;;;25.20;86.20;;;;;;5019857;28;20038;-69
2023/07/23 10:57:05;;;;;;;4.40;2.72;;;24.90;88.10;;;;;;5028271;28;20132;-68
2023/07/23 10:59:31;;;;;;;6.07;2.78;;;24.80;88.00;;;;;;5016966;28;20048;-70
2023/07/23 11:01:57;;;;;;;5.85;2.22;;;24.70;89.20;;;;;;5014038;28;20052;-69
2023/07/23 11:04:26;;;;;;;4.65;2.38;;;25.10;90.10;;;;;;5019614;28;20034;-69
2023/07/23 11:07:06;;;;;;;11.75;2.30;;;25.20;87.30;;;;;;5028850;28;20048;-69
2023/07/23 11:09:37;;;;;;;4.72;2.65;;;25.60;89.10;;;;;;5017035;28;20033;-69
2023/07/23 11:12:05;;;;;;;6.03;3.17;;;26.20;90.50;;;;;;5022890;28;20041;-71
2023/07/23 11:14:32;;;;;;;5.35;3.05;;;26.70;83.80;;;;;;5017339;28;20045;-66
2023/07/23 11:17:02;;;;;;;9.90;3.45;;;26.40;83.20;;;;;;5014905;28;20049;-70
2023/07/23 11:19:30;;;;;;;12.23;3.78;;;26.50;83.20;;;;;;5020765;28;20133;-67
2023/07/23 11:22:01;;;;;;;6.85;3.92;;;26.60;84.20;;;;;;5024816;28;20087;-69
2023/07/23 11:24:29;;;;;;;7.38;3.50;;;26.60;83.00;;;;;;5014782;28;20378;-69
2023/07/23 11:27:01;;;;;;;5.78;2.92;;;26.70;79.70;;;;;;5018373;28;20057;-71
2023/07/23 11:29:27;;;;;;;6.90;3.33;;;26.30;81.00;;;;;;5025047;28;20025;-71
2023/07/23 11:31:54;;;;;;;9.52;2.95;;;26.00;80.20;;;;;;5029479;28;20096;-70
2023/07/23 11:34:21;;;;;;;7.35;3.00;;;26.10;84.40;;;;;;5021992;28;20399;-69
2023/07/23 11:36:52;;;;;;;6.25;3.60;;;25.90;82.30;;;;;;5023694;28;20045;-70
2023/07/23 11:39:18;;;;;;;5.85;3.70;;;26.00;81.00;;;;;;5018518;28;20173;-71
2023/07/23 11:41:44;;;;;;;7.88;3.90;;;26.30;82.10;;;;;;5010590;28;20433;-71
2023/07/23 11:44:11;;;;;;;6.55;3.80;;;26.20;77.80;;;;;;4993816;28;20108;-70
2023/07/23 11:46:38;;;;;;;6.10;3.30;;;26.50;79.30;;;;;;5019509;28;20042;-71
2023/07/23 11:49:11;;;;;;;7.90;4.32;;;26.30;78.70;;;;;;5025665;28;20044;-69
2023/07/23 11:51:38;;;;;;;16.52;3.97;;;26.70;76.50;;;;;;5011839;28;20045;-70
2023/07/23 11:54:09;;;;;;;7.65;3.45;;;27.00;71.70;;;;;;5018248;28;20025;-68
2023/07/23 11:56:40;;;;;;;7.97;3.47;;;27.00;73.10;;;;;;5025436;28;20120;-70
2023/07/23 11:59:08;;;;;;;6.32;3.22;;;27.20;72.10;;;;;;5020576;28;20033;-75
2023/07/23 12:01:38;;;;;;;7.57;4.00;;;27.20;70.30;;;;;;5024861;28;20061;-69
2023/07/23 12:04:05;;;;;;;5.43;3.08;;;26.80;70.20;;;;;;5030330;28;20384;-69
2023/07/23 12:06:33;;;;;;;6.70;3.08;;;26.90;70.70;;;;;;5029281;28;20060;-65
2023/07/23 12:08:59;;;;;;;6.63;3.38;;;26.60;69.60;;;;;;5025099;28;20542;-70
2023/07/23 12:11:29;;;;;;;6.20;3.17;;;26.70;71.90;;;;;;5023166;28;20033;-67
2023/07/23 12:13:56;;;;;;;7.57;2.97;;;27.20;72.10;;;;;;5021336;28;20087;-69
2023/07/23 12:16:38;;;;;;;11.35;3.25;;;27.80;68.60;;;;;;5016780;28;20041;-68
2023/07/23 12:19:07;;;;;;;5.80;3.20;;;27.70;64.90;;;;;;5023823;28;20444;-69
2023/07/23 12:21:39;;;;;;;5.95;3.10;;;27.10;64.80;;;;;;5016535;28;20111;-65
2023/07/23 12:24:26;;;;;;;6.57;2.97;;;26.80;66.90;;;;;;5024852;28;20041;-69
2023/07/23 12:26:59;;;;;;;5.25;3.03;;;26.60;65.60;;;;;;5010397;28;20656;-72
2023/07/23 12:29:26;;;;;;;4.50;3.10;;;26.70;64.10;;;;;;5019437;28;20029;-71
2023/07/23 12:32:13;;;;;;;5.38;3.10;;;27.20;64.30;;;;;;5018944;28;20574;-69
2023/07/23 12:34:40;;;;;;;11.90;3.25;;;27.50;64.20;;;;;;5015487;28;20029;-68
2023/07/23 12:37:07;;;;;;;7.78;3.25;;;27.20;61.00;;;;;;5021733;28;20044;-70
2023/07/23 12:39:32;;;;;;;6.28;3.20;;;26.50;61.60;;;;;;5025163;28;20044;-65
2023/07/23 12:41:58;;;;;;;5.38;2.92;;;26.20;63.80;;;;;;5004042;28;20030;-69